Oakland, Florida
Current Conditions -  °F | °C
As of 8:53 PM on Friday 28 Nov 2014 (Local Time) from KORL Reporting Station
Clear Clear  
Wind Chill: 51°   Ceiling: Unl
Heat Index: 51°   Visibility: 10mi
Dew Point: 41°   Wind: 8mph
Humidity: 68%   Direction: 350°N
Pressure: 30.3"   Gusts: NA
Location:  28.55°N, 81.63°W
Report Text: KORL 290153Z 35007KT 10SM CLR 11/05 A3030 RMK AO2 SLP264 T01060050
Loading
Personal Weather Stations






























Interactive Weather Map New forecast layout! Learn more

10-Day Weather Forecast

Advertisements
Track Severe Weather on mobile